Alcolu, South Carolina
Current Conditions -  °F | °C
As of 5:15 PM on Sunday 21 Dec 2014 (Local Time) from KSMS Reporting Station
Few Clouds Few Clouds  
Wind Chill: 11°   Ceiling: Unl
Heat Index: 11°   Visibility: 10mi
Dew Point:   Wind: 3mph
Humidity: 71%   Direction: 50°NE
Pressure: 30.18"   Gusts: NA
Location:  33.75°N, 80.21°W
Report Text: KSMS 212215Z AUTO 05003KT 10SM FEW075 11/06 A3018 RMK AO2
Loading
Personal Weather Stations






























Interactive Weather Map New forecast layout! Learn more

10-Day Weather Forecast

Advertisements
Track Severe Weather on mobile